createdAt,value
2018-05-25T00:00:12.099Z,0
2018-05-25T00:01:12.360Z,0
2018-05-25T00:02:12.344Z,0
2018-05-25T00:03:12.071Z,0
2018-05-25T00:04:11.791Z,0
2018-05-25T00:05:12.047Z,0
2018-05-25T00:06:11.504Z,0
2018-05-25T00:07:12.022Z,0
2018-05-25T00:08:12.280Z,0
2018-05-25T00:09:12.005Z,0
2018-05-25T00:10:11.989Z,0
2018-05-25T00:11:12.244Z,0
2018-05-25T00:12:11.443Z,0
2018-05-25T00:13:11.952Z,0
2018-05-25T00:14:12.226Z,0
2018-05-25T00:15:12.203Z,0
2018-05-25T00:16:11.920Z,0
2018-05-25T00:17:11.913Z,0
2018-05-25T00:18:11.911Z,0
2018-05-25T00:19:12.161Z,0
2018-05-25T00:20:11.880Z,0
2018-05-25T00:21:11.604Z,0
2018-05-25T00:22:11.594Z,0
2018-05-25T00:23:11.576Z,0
2018-05-25T00:24:11.834Z,0
2018-05-25T00:25:11.574Z,0
2018-05-25T00:26:11.547Z,0
2018-05-25T00:27:12.000Z,0
2018-05-25T00:28:11.788Z,0
2018-05-25T00:29:11.512Z,0
2018-05-25T00:30:11.777Z,0
2018-05-25T00:31:11.491Z,0
2018-05-25T00:32:11.483Z,0
2018-05-25T00:33:11.992Z,0
2018-05-25T00:34:11.733Z,0
2018-05-25T00:35:11.719Z,0
2018-05-25T00:36:11.737Z,0
2018-05-25T00:37:11.697Z,0
2018-05-25T00:38:11.952Z,0
2018-05-25T00:39:11.742Z,0
2018-05-25T00:40:11.662Z,0
2018-05-25T00:41:11.914Z,0
2018-05-25T00:42:11.460Z,0
2018-05-25T00:43:11.671Z,0
2018-05-25T00:44:11.781Z,0
2018-05-25T00:45:11.600Z,0
2018-05-25T00:46:11.844Z,0
2018-05-25T00:47:11.046Z,0
2018-05-25T00:48:11.565Z,0
2018-05-25T00:49:11.549Z,0
2018-05-25T00:50:11.801Z,0
2018-05-25T00:51:11.535Z,0
2018-05-25T00:52:11.515Z,0
2018-05-25T00:53:11.504Z,0
2018-05-25T00:54:11.503Z,0
2018-05-25T00:55:11.486Z,0
2018-05-25T00:56:11.470Z,0
2018-05-25T00:57:11.197Z,0
2018-05-25T00:58:11.186Z,0
2018-05-25T00:59:11.711Z,0
2018-05-25T01:00:11.165Z,0
2018-05-25T01:01:11.706Z,0
2018-05-25T01:02:11.662Z,0
2018-05-25T01:03:11.665Z,0
2018-05-25T01:04:11.379Z,0
2018-05-25T01:05:11.636Z,0
2018-05-25T01:06:11.357Z,0
2018-05-25T01:07:11.376Z,0
2018-05-25T01:08:11.611Z,0
2018-05-25T01:09:11.583Z,0
2018-05-25T01:10:11.575Z,0
2018-05-25T01:11:11.032Z,0
2018-05-25T01:12:11.289Z,0
2018-05-25T01:13:11.289Z,0
2018-05-25T01:14:11.267Z,0
2018-05-25T01:15:11.269Z,0
2018-05-25T01:16:11.528Z,0
2018-05-25T01:17:11.230Z,0
2018-05-25T01:18:10.960Z,0
2018-05-25T01:19:11.213Z,0
2018-05-25T01:20:11.200Z,0
2018-05-25T01:21:11.191Z,0
2018-05-25T01:22:10.918Z,0
2018-05-25T01:23:11.165Z,0
2018-05-25T01:24:11.155Z,0
2018-05-25T01:25:11.139Z,0
2018-05-25T01:26:11.400Z,0
2018-05-25T01:27:11.119Z,0
2018-05-25T01:28:10.844Z,0
2018-05-25T01:29:11.413Z,0
2018-05-25T01:30:11.080Z,0
2018-05-25T01:31:11.071Z,0
2018-05-25T01:32:11.061Z,0
2018-05-25T01:33:11.050Z,0
2018-05-25T01:34:11.037Z,0
2018-05-25T01:35:11.499Z,0
2018-05-25T01:36:10.745Z,0
2018-05-25T01:37:11.272Z,0
2018-05-25T01:38:10.993Z,0
2018-05-25T01:39:10.991Z,0
2018-05-25T01:40:10.970Z,0
2018-05-25T01:41:10.695Z,0
2018-05-25T01:42:10.949Z,0
2018-05-25T01:43:10.936Z,0
2018-05-25T01:44:10.934Z,0
2018-05-25T01:45:11.187Z,0
2018-05-25T01:46:10.899Z,0
2018-05-25T01:47:11.152Z,0
2018-05-25T01:48:10.881Z,0
2018-05-25T01:49:11.137Z,0
2018-05-25T01:50:10.864Z,0
2018-05-25T01:51:10.583Z,0
2018-05-25T01:52:10.570Z,0
2018-05-25T01:53:10.560Z,0
2018-05-25T01:54:10.808Z,0
2018-05-25T01:55:10.800Z,0
2018-05-25T01:56:10.523Z,0
2018-05-25T01:57:10.508Z,0
2018-05-25T01:58:10.497Z,0
2018-05-25T01:59:10.492Z,0
2018-05-25T02:00:10.747Z,0
2018-05-25T02:01:10.730Z,0
2018-05-25T02:02:10.719Z,0
2018-05-25T02:03:10.705Z,0
2018-05-25T02:04:10.435Z,0
2018-05-25T02:05:10.685Z,0
2018-05-25T02:06:10.414Z,0
2018-05-25T02:07:10.662Z,0
2018-05-25T02:08:10.651Z,0
2018-05-25T02:09:10.908Z,0
2018-05-25T02:10:10.639Z,0
2018-05-25T02:11:10.656Z,0
2018-05-25T02:12:10.605Z,0
2018-05-25T02:13:10.602Z,0
2018-05-25T02:14:10.594Z,0
2018-05-25T02:15:10.576Z,0
2018-05-25T02:16:10.035Z,0
2018-05-25T02:17:10.816Z,0
2018-05-25T02:18:10.792Z,0
2018-05-25T02:19:10.256Z,0
2018-05-25T02:20:10.514Z,0
2018-05-25T02:21:10.504Z,0
2018-05-25T02:22:10.764Z,0
2018-05-25T02:23:10.475Z,0
2018-05-25T02:24:10.467Z,0
2018-05-25T02:25:10.182Z,0
2018-05-25T02:26:10.712Z,0
2018-05-25T02:27:10.837Z,0
2018-05-25T02:28:10.684Z,0
2018-05-25T02:29:10.411Z,0
2018-05-25T02:30:09.864Z,0
2018-05-25T02:31:10.453Z,0
2018-05-25T02:32:10.126Z,0
2018-05-25T02:33:10.373Z,0
2018-05-25T02:34:10.352Z,0
2018-05-25T02:35:10.609Z,0
2018-05-25T02:36:10.597Z,0
2018-05-25T02:37:10.323Z,0
2018-05-25T02:38:10.314Z,0
2018-05-25T02:39:10.024Z,0
2018-05-25T02:40:10.020Z,0
2018-05-25T02:41:10.025Z,0
2018-05-25T02:42:10.254Z,0
2018-05-25T02:43:10.247Z,0
2018-05-25T02:44:10.245Z,0
2018-05-25T02:45:10.617Z,0
2018-05-25T02:46:10.480Z,0
2018-05-25T02:47:10.207Z,0
2018-05-25T02:48:10.187Z,4
2018-05-25T02:49:10.180Z,4
2018-05-25T02:50:10.480Z,0
2018-05-25T02:51:10.163Z,0
2018-05-25T02:52:10.149Z,4
2018-05-25T02:53:10.127Z,4
2018-05-25T02:54:10.124Z,0
2018-05-25T02:55:09.846Z,4
2018-05-25T02:56:09.832Z,4
2018-05-25T02:57:10.371Z,4
2018-05-25T02:58:10.074Z,4
2018-05-25T02:59:09.802Z,8
2018-05-25T03:00:10.317Z,8
2018-05-25T03:01:09.507Z,4
2018-05-25T03:02:10.307Z,8
2018-05-25T03:03:10.031Z,8
2018-05-25T03:04:09.480Z,12
2018-05-25T03:05:10.272Z,12
2018-05-25T03:06:09.982Z,12
2018-05-25T03:07:09.717Z,16
2018-05-25T03:08:09.959Z,16
2018-05-25T03:09:09.705Z,20
2018-05-25T03:10:09.666Z,20
2018-05-25T03:11:09.399Z,24
2018-05-25T03:12:09.940Z,28
2018-05-25T03:13:09.657Z,32
2018-05-25T03:14:09.893Z,36
2018-05-25T03:15:09.906Z,40
2018-05-25T03:16:09.596Z,40
2018-05-25T03:17:09.940Z,48
2018-05-25T03:18:10.123Z,52
2018-05-25T03:19:09.569Z,56
2018-05-25T03:20:09.810Z,60
2018-05-25T03:21:09.827Z,68
2018-05-25T03:22:09.527Z,76
2018-05-25T03:23:09.533Z,84
2018-05-25T03:24:09.770Z,92
2018-05-25T03:25:09.808Z,96
2018-05-25T03:26:09.892Z,104
2018-05-25T03:27:09.759Z,112
2018-05-25T03:28:09.455Z,116
2018-05-25T03:29:09.979Z,124
2018-05-25T03:30:09.695Z,136
2018-05-25T03:31:09.686Z,144
2018-05-25T03:32:09.937Z,152
2018-05-25T03:33:09.937Z,164
2018-05-25T03:34:09.667Z,176
2018-05-25T03:35:09.379Z,188
2018-05-25T03:36:09.644Z,200
2018-05-25T03:37:09.622Z,212
2018-05-25T03:38:09.607Z,224
2018-05-25T03:39:09.602Z,236
2018-05-25T03:40:09.597Z,252
2018-05-25T03:41:09.844Z,268
2018-05-25T03:42:09.301Z,288
2018-05-25T03:43:09.551Z,304
2018-05-25T03:44:09.535Z,316
2018-05-25T03:45:09.562Z,328
2018-05-25T03:46:09.251Z,336
2018-05-25T03:47:09.791Z,340
2018-05-25T03:48:08.956Z,348
2018-05-25T03:49:09.795Z,356
2018-05-25T03:50:09.723Z,364
2018-05-25T03:51:09.710Z,372
2018-05-25T03:52:09.440Z,376
2018-05-25T03:53:09.429Z,388
2018-05-25T03:54:09.681Z,396
2018-05-25T03:55:09.419Z,412
2018-05-25T03:56:09.431Z,428
2018-05-25T03:57:09.402Z,444
2018-05-25T03:58:09.099Z,452
2018-05-25T03:59:09.358Z,468
2018-05-25T04:00:09.080Z,480
2018-05-25T04:01:09.073Z,496
2018-05-25T04:02:09.054Z,516
2018-05-25T04:03:09.312Z,536
2018-05-25T04:04:09.026Z,556
2018-05-25T04:05:09.289Z,572
2018-05-25T04:06:09.548Z,592
2018-05-25T04:07:09.000Z,600
2018-05-25T04:08:08.980Z,608
2018-05-25T04:09:09.235Z,612
2018-05-25T04:10:08.698Z,612
2018-05-25T04:11:08.686Z,616
2018-05-25T04:12:08.945Z,620
2018-05-25T04:13:08.922Z,624
2018-05-25T04:14:09.183Z,624
2018-05-25T04:15:08.903Z,628
2018-05-25T04:16:09.149Z,632
2018-05-25T04:17:09.143Z,636
2018-05-25T04:18:09.140Z,636
2018-05-25T04:19:08.866Z,644
2018-05-25T04:20:09.106Z,648
2018-05-25T04:21:08.835Z,652
2018-05-25T04:22:08.564Z,660
2018-05-25T04:23:09.332Z,668
2018-05-25T04:24:08.795Z,680
2018-05-25T04:25:08.789Z,696
2018-05-25T04:26:08.512Z,708
2018-05-25T04:27:09.230Z,720
2018-05-25T04:28:09.278Z,740
2018-05-25T04:29:09.006Z,752
2018-05-25T04:30:08.990Z,768
2018-05-25T04:31:08.715Z,780
2018-05-25T04:32:09.011Z,792
2018-05-25T04:33:08.956Z,804
2018-05-25T04:34:09.213Z,816
2018-05-25T04:35:09.199Z,828
2018-05-25T04:36:08.667Z,832
2018-05-25T04:37:08.911Z,840
2018-05-25T04:38:08.629Z,852
2018-05-25T04:39:09.150Z,868
2018-05-25T04:40:08.870Z,880
2018-05-25T04:41:08.594Z,896
2018-05-25T04:42:08.865Z,920
2018-05-25T04:43:08.577Z,956
2018-05-25T04:44:08.567Z,996
2018-05-25T04:45:08.548Z,1040
2018-05-25T04:46:08.809Z,1088
2018-05-25T04:47:08.527Z,1124
2018-05-25T04:48:08.779Z,1160
2018-05-25T04:49:08.775Z,1192
2018-05-25T04:50:08.758Z,1224
2018-05-25T04:51:08.487Z,1256
2018-05-25T04:52:08.747Z,1288
2018-05-25T04:53:09.007Z,1320
2018-05-25T04:54:08.184Z,1348
2018-05-25T04:55:08.978Z,1380
2018-05-25T04:56:08.694Z,1416
2018-05-25T04:57:08.683Z,1456
2018-05-25T04:58:08.660Z,1504
2018-05-25T04:59:08.387Z,1560
2018-05-25T05:00:08.383Z,1624
2018-05-25T05:01:08.378Z,1696
2018-05-25T05:02:08.622Z,1760
2018-05-25T05:03:08.882Z,1820
2018-05-25T05:04:08.333Z,1860
2018-05-25T05:05:08.968Z,1888
2018-05-25T05:06:08.577Z,1900
2018-05-25T05:07:08.609Z,1892
2018-05-25T05:08:08.818Z,1876
2018-05-25T05:09:08.820Z,1848
2018-05-25T05:10:08.528Z,1796
2018-05-25T05:11:08.523Z,1740
2018-05-25T05:12:08.504Z,1680
2018-05-25T05:13:07.966Z,1616
2018-05-25T05:14:08.218Z,1556
2018-05-25T05:15:08.512Z,1496
2018-05-25T05:16:08.191Z,1448
2018-05-25T05:17:08.391Z,1396
2018-05-25T05:18:08.182Z,1360
2018-05-25T05:19:07.899Z,1344
2018-05-25T05:20:08.429Z,1344
2018-05-25T05:21:08.402Z,1352
2018-05-25T05:22:08.663Z,1368
2018-05-25T05:23:08.215Z,1392
2018-05-25T05:24:08.112Z,1416
2018-05-25T05:25:08.092Z,1440
2018-05-25T05:26:08.075Z,1464
2018-05-25T05:27:08.612Z,1484
2018-05-25T05:28:08.330Z,1488
2018-05-25T05:29:08.044Z,1496
2018-05-25T05:30:08.304Z,1524
2018-05-25T05:31:08.291Z,1552
2018-05-25T05:32:08.018Z,1576
2018-05-25T05:33:08.274Z,1616
2018-05-25T05:34:08.267Z,1664
2018-05-25T05:35:08.262Z,1708
2018-05-25T05:36:08.242Z,1760
2018-05-25T05:37:08.490Z,1824
2018-05-25T05:38:08.223Z,1884
2018-05-25T05:39:08.469Z,1956
2018-05-25T05:40:08.472Z,2048
2018-05-25T05:41:08.185Z,2124
2018-05-25T05:42:07.912Z,2192
2018-05-25T05:43:08.164Z,2256
2018-05-25T05:44:08.569Z,2308
2018-05-25T05:45:08.441Z,2360
2018-05-25T05:46:08.400Z,2408
2018-05-25T05:47:08.407Z,2456
2018-05-25T05:48:07.574Z,2520
2018-05-25T05:49:08.099Z,2604
2018-05-25T05:50:08.081Z,2708
2018-05-25T05:51:08.146Z,2852
2018-05-25T05:52:08.067Z,3040
2018-05-25T05:53:08.057Z,3240
2018-05-25T05:54:08.302Z,3456
2018-05-25T05:55:07.774Z,3648
2018-05-25T05:56:08.025Z,3812
2018-05-25T05:57:08.280Z,3936
2018-05-25T05:58:07.736Z,4004
2018-05-25T05:59:07.733Z,4024
2018-05-25T06:00:08.248Z,4032
2018-05-25T06:01:07.978Z,4072
2018-05-25T06:02:08.221Z,4148
2018-05-25T06:03:07.949Z,4256
2018-05-25T06:04:07.940Z,4340
2018-05-25T06:05:07.923Z,4452
2018-05-25T06:06:07.652Z,4544
2018-05-25T06:07:07.915Z,4924
2018-05-25T06:08:07.889Z,4992
2018-05-25T06:09:07.614Z,4696
2018-05-25T06:10:07.621Z,4628
2018-05-25T06:11:07.650Z,4480
2018-05-25T06:12:07.589Z,4336
2018-05-25T06:13:07.837Z,4204
2018-05-25T06:14:08.094Z,4128
2018-05-25T06:15:07.571Z,4068
2018-05-25T06:16:07.572Z,3952
2018-05-25T06:17:08.120Z,3792
2018-05-25T06:18:07.795Z,3688
2018-05-25T06:19:07.803Z,3652
2018-05-25T06:20:08.225Z,3608
2018-05-25T06:21:08.037Z,3700
2018-05-25T06:22:07.754Z,3796
2018-05-25T06:23:07.475Z,3816
2018-05-25T06:24:07.724Z,3732
2018-05-25T06:25:07.719Z,3640
2018-05-25T06:26:07.440Z,3596
2018-05-25T06:27:07.967Z,3608
2018-05-25T06:28:07.888Z,3656
2018-05-25T06:29:07.418Z,3696
2018-05-25T06:30:07.407Z,3708
2018-05-25T06:31:07.934Z,3724
2018-05-25T06:32:07.655Z,3792
2018-05-25T06:33:07.129Z,3896
2018-05-25T06:34:07.361Z,4024
2018-05-25T06:35:07.368Z,4192
2018-05-25T06:36:07.867Z,4408
2018-05-25T06:37:07.864Z,4576
2018-05-25T06:38:07.855Z,4724
2018-05-25T06:39:07.856Z,4756
2018-05-25T06:40:07.566Z,4636
2018-05-25T06:41:07.572Z,4568
2018-05-25T06:42:07.552Z,4416
2018-05-25T06:43:07.279Z,4292
2018-05-25T06:44:07.553Z,4084
2018-05-25T06:45:07.536Z,3928
2018-05-25T06:46:07.773Z,3824
2018-05-25T06:47:06.974Z,3696
2018-05-25T06:48:07.230Z,3708
2018-05-25T06:49:07.788Z,3908
2018-05-25T06:50:07.534Z,4092
2018-05-25T06:51:07.670Z,4168
2018-05-25T06:52:07.454Z,4052
2018-05-25T06:53:07.189Z,3936
2018-05-25T06:54:07.175Z,3852
2018-05-25T06:55:07.167Z,3888
2018-05-25T06:56:07.181Z,4084
2018-05-25T06:57:06.935Z,4212
2018-05-25T06:58:07.227Z,4236
2018-05-25T06:59:07.130Z,4196
2018-05-25T07:00:07.383Z,4388
2018-05-25T07:01:07.658Z,4444
2018-05-25T07:02:07.360Z,4492
2018-05-25T07:03:07.615Z,4460
2018-05-25T07:04:07.498Z,4468
2018-05-25T07:05:07.597Z,4508
2018-05-25T07:06:07.059Z,4564
2018-05-25T07:07:07.061Z,4596
2018-05-25T07:08:07.045Z,4652
2018-05-25T07:09:07.299Z,4688
2018-05-25T07:10:07.015Z,4788
2018-05-25T07:11:07.278Z,4772
2018-05-25T07:12:07.535Z,4728
2018-05-25T07:13:07.264Z,4624
2018-05-25T07:14:07.258Z,4564
2018-05-25T07:15:07.505Z,4568
2018-05-25T07:16:07.500Z,4588
2018-05-25T07:17:07.662Z,4636
2018-05-25T07:18:07.478Z,4672
2018-05-25T07:19:07.212Z,4700
2018-05-25T07:20:06.930Z,4768
2018-05-25T07:21:07.184Z,4848
2018-05-25T07:22:06.904Z,4912
2018-05-25T07:23:06.636Z,4944
2018-05-25T07:24:07.163Z,4964
2018-05-25T07:25:07.155Z,8516
2018-05-25T07:26:06.877Z,25152
2018-05-25T07:27:07.402Z,32576
2018-05-25T07:28:07.115Z,30560
2018-05-25T07:29:06.852Z,30144
2018-05-25T07:30:07.361Z,33088
2018-05-25T07:31:07.092Z,35744
2018-05-25T07:32:07.090Z,36544
2018-05-25T07:33:07.079Z,36000
2018-05-25T07:34:07.077Z,35456
2018-05-25T07:35:07.072Z,34624
2018-05-25T07:36:07.323Z,32288
2018-05-25T07:37:07.053Z,31968
2018-05-25T07:38:06.519Z,34144
2018-05-25T07:39:07.329Z,36960
2018-05-25T07:40:07.037Z,37248
2018-05-25T07:41:07.299Z,35776
2018-05-25T07:42:07.287Z,35168
2018-05-25T07:43:06.491Z,35872
2018-05-25T07:44:06.754Z,35808
2018-05-25T07:45:07.032Z,35616
2018-05-25T07:46:06.757Z,36000
2018-05-25T07:47:07.018Z,36832
2018-05-25T07:48:07.276Z,37056
2018-05-25T07:49:07.265Z,35840
2018-05-25T07:50:07.271Z,34944
2018-05-25T07:51:07.000Z,36032
2018-05-25T07:52:06.990Z,37440
2018-05-25T07:53:06.726Z,36864
2018-05-25T07:54:07.255Z,36096
2018-05-25T07:55:07.084Z,36576
2018-05-25T07:56:06.730Z,38176
2018-05-25T07:57:06.980Z,39296
2018-05-25T07:58:06.710Z,32224
2018-05-25T07:59:06.978Z,31776
2018-05-25T08:00:06.977Z,37376
2018-05-25T08:01:06.974Z,39936
2018-05-25T08:02:06.969Z,41184
2018-05-25T08:03:06.704Z,42144
2018-05-25T08:04:07.245Z,34624
2018-05-25T08:05:06.710Z,41280
2018-05-25T08:06:06.973Z,40800
2018-05-25T08:07:06.708Z,41664
2018-05-25T08:08:06.703Z,40896
2018-05-25T08:09:06.701Z,41152
2018-05-25T08:10:06.698Z,42624
2018-05-25T08:11:06.704Z,42176
2018-05-25T08:12:07.056Z,39456
2018-05-25T08:13:07.230Z,37696
2018-05-25T08:14:07.002Z,37504
2018-05-25T08:15:06.702Z,39744
2018-05-25T08:16:07.232Z,20896
2018-05-25T08:17:06.970Z,23136
2018-05-25T08:18:06.970Z,47392
2018-05-25T08:19:06.960Z,48352
2018-05-25T08:20:07.240Z,46592
2018-05-25T08:21:06.709Z,42592
2018-05-25T08:22:07.050Z,37536
2018-05-25T08:23:07.231Z,33120
2018-05-25T08:24:06.712Z,41792
2018-05-25T08:25:07.230Z,42912
2018-05-25T08:26:06.965Z,45216
2018-05-25T08:27:07.251Z,45536
2018-05-25T08:28:07.177Z,45280
2018-05-25T08:29:06.707Z,42912
2018-05-25T08:30:07.243Z,43072
2018-05-25T08:31:07.255Z,45216
2018-05-25T08:32:06.722Z,47136
2018-05-25T08:33:06.974Z,11604
2018-05-25T08:34:07.240Z,48128
2018-05-25T08:35:07.252Z,20384
2018-05-25T08:36:06.717Z,14888
2018-05-25T08:37:06.986Z,11056
2018-05-25T08:38:06.980Z,10584
2018-05-25T08:39:06.726Z,10320
2018-05-25T08:40:06.989Z,9996
2018-05-25T08:41:06.986Z,10320
2018-05-25T08:42:06.719Z,10196
2018-05-25T08:43:07.285Z,9784
2018-05-25T08:44:07.264Z,9556
2018-05-25T08:45:07.185Z,10144
2018-05-25T08:46:07.247Z,9272
2018-05-25T08:47:06.709Z,8500
2018-05-25T08:48:06.715Z,9612
2018-05-25T08:49:06.709Z,12020
2018-05-25T08:50:06.710Z,11424
2018-05-25T08:51:06.972Z,11808
2018-05-25T08:52:06.977Z,12016
2018-05-25T08:53:06.972Z,13212
2018-05-25T08:54:06.953Z,14524
2018-05-25T08:55:06.749Z,14412
2018-05-25T08:56:06.957Z,15968
2018-05-25T08:57:06.695Z,14780
2018-05-25T08:58:07.213Z,15328
2018-05-25T08:59:06.675Z,16640
2018-05-25T09:00:06.948Z,15672
2018-05-25T09:01:07.208Z,15968
2018-05-25T09:02:06.681Z,16332
2018-05-25T09:03:06.403Z,14760
2018-05-25T09:04:06.660Z,12944
2018-05-25T09:05:07.192Z,13028
2018-05-25T09:06:06.653Z,12988
2018-05-25T09:07:06.931Z,14280
2018-05-25T09:08:06.907Z,13768
2018-05-25T09:09:06.646Z,12756
2018-05-25T09:10:06.903Z,13668
2018-05-25T09:11:07.183Z,17024
2018-05-25T09:12:06.899Z,14988
2018-05-25T09:13:06.634Z,13644
2018-05-25T09:14:07.159Z,13520
2018-05-25T09:15:06.632Z,13864
2018-05-25T09:16:06.623Z,14048
2018-05-25T09:17:07.153Z,14024
2018-05-25T09:18:06.876Z,14656
2018-05-25T09:19:06.340Z,14920
2018-05-25T09:20:06.897Z,15808
2018-05-25T09:21:06.598Z,17088
2018-05-25T09:22:06.600Z,18048
2018-05-25T09:23:06.595Z,19200
2018-05-25T09:24:06.868Z,19232
2018-05-25T09:25:06.649Z,20064
2018-05-25T09:26:07.116Z,20928
2018-05-25T09:27:06.838Z,21184
2018-05-25T09:28:07.097Z,21184
2018-05-25T09:29:06.830Z,21408
2018-05-25T09:30:07.104Z,20864
2018-05-25T09:31:06.826Z,21728
2018-05-25T09:32:06.549Z,21696
2018-05-25T09:33:06.546Z,21408
2018-05-25T09:34:07.068Z,20192
2018-05-25T09:35:07.065Z,18880
2018-05-25T09:36:07.079Z,18112
2018-05-25T09:37:06.528Z,20192
2018-05-25T09:38:06.530Z,21248
2018-05-25T09:39:06.531Z,22368
2018-05-25T09:40:06.790Z,21344
2018-05-25T09:41:07.051Z,26752
2018-05-25T09:42:06.517Z,24064
2018-05-25T09:43:06.250Z,18624
2018-05-25T09:44:06.504Z,15232
2018-05-25T09:45:06.763Z,15272
2018-05-25T09:46:06.497Z,21280
2018-05-25T09:47:06.492Z,17888
2018-05-25T09:48:06.492Z,19776
2018-05-25T09:49:07.025Z,20896
2018-05-25T09:50:07.017Z,22976
2018-05-25T09:51:07.007Z,24608
2018-05-25T09:52:06.744Z,23104
2018-05-25T09:53:06.741Z,20896
2018-05-25T09:54:06.739Z,21536
2018-05-25T09:55:06.468Z,22688
2018-05-25T09:56:06.871Z,23296
2018-05-25T09:57:06.462Z,22816
2018-05-25T09:58:06.462Z,22176
2018-05-25T09:59:06.990Z,20000
2018-05-25T10:00:06.462Z,21408
2018-05-25T10:01:06.996Z,21984
2018-05-25T10:02:06.713Z,23232
2018-05-25T10:03:06.458Z,23872
2018-05-25T10:04:06.979Z,24576
2018-05-25T10:05:06.470Z,23968
2018-05-25T10:06:06.953Z,22880
2018-05-25T10:07:06.698Z,21696
2018-05-25T10:08:06.712Z,20672
2018-05-25T10:09:06.967Z,20448
2018-05-25T10:10:06.210Z,20576
2018-05-25T10:11:06.956Z,20608
2018-05-25T10:12:06.943Z,21024
2018-05-25T10:13:06.677Z,19808
2018-05-25T10:14:06.418Z,18848
2018-05-25T10:15:06.938Z,19424
2018-05-25T10:16:06.411Z,19424
2018-05-25T10:17:06.414Z,22112
2018-05-25T10:18:06.747Z,23648
2018-05-25T10:19:06.926Z,26208
2018-05-25T10:20:06.946Z,25824
2018-05-25T10:21:06.921Z,24608
2018-05-25T10:22:06.385Z,23552
2018-05-25T10:23:06.664Z,22304
2018-05-25T10:24:06.665Z,23840
2018-05-25T10:25:06.371Z,21216
2018-05-25T10:26:06.647Z,25984
2018-05-25T10:27:06.637Z,22336
2018-05-25T10:28:06.829Z,22688
2018-05-25T10:29:06.640Z,22912
2018-05-25T10:30:06.892Z,24448
2018-05-25T10:31:06.629Z,22976
2018-05-25T10:32:06.631Z,46336
2018-05-25T10:33:06.626Z,23744
2018-05-25T10:34:06.358Z,48960
2018-05-25T10:35:07.088Z,32928
2018-05-25T10:36:06.353Z,29600
2018-05-25T10:37:06.886Z,22304
2018-05-25T10:38:06.081Z,18528
2018-05-25T10:39:06.075Z,26272
2018-05-25T10:40:06.335Z,68640
2018-05-25T10:41:06.769Z,82336
2018-05-25T10:42:06.614Z,83616
2018-05-25T10:43:06.329Z,86528
2018-05-25T10:44:06.606Z,79008
2018-05-25T10:45:06.327Z,21600
2018-05-25T10:46:06.599Z,22560
2018-05-25T10:47:06.330Z,27264
2018-05-25T10:48:06.784Z,49152
2018-05-25T10:49:06.595Z,28640
2018-05-25T10:50:06.856Z,40832
2018-05-25T10:51:06.597Z,28032
2018-05-25T10:52:06.324Z,68768
2018-05-25T10:53:06.325Z,42112
2018-05-25T10:54:06.612Z,59808
2018-05-25T10:55:06.594Z,25536
2018-05-25T10:56:06.464Z,21344
2018-05-25T10:57:06.329Z,21920
2018-05-25T10:58:06.596Z,34304
2018-05-25T10:59:06.595Z,72928
2018-05-25T11:00:06.058Z,22784
2018-05-25T11:01:06.329Z,28992
2018-05-25T11:02:06.590Z,13152
2018-05-25T11:03:06.588Z,8828
2018-05-25T11:04:06.865Z,6796
2018-05-25T11:05:06.880Z,6180
2018-05-25T11:06:06.602Z,5844
2018-05-25T11:07:06.870Z,5784
2018-05-25T11:08:06.593Z,6036
2018-05-25T11:09:06.060Z,6528
2018-05-25T11:10:06.463Z,7316
2018-05-25T11:11:06.591Z,8228
2018-05-25T11:12:06.327Z,11860
2018-05-25T11:13:06.588Z,8660
2018-05-25T11:14:06.323Z,9188
2018-05-25T11:15:06.854Z,9816
2018-05-25T11:16:06.319Z,9680
2018-05-25T11:17:06.580Z,9068
2018-05-25T11:18:06.854Z,8612
2018-05-25T11:19:06.847Z,8476
2018-05-25T11:20:06.854Z,8696
2018-05-25T11:21:06.034Z,8892
2018-05-25T11:22:06.586Z,8948
2018-05-25T11:23:06.566Z,9228
2018-05-25T11:24:06.327Z,8868
2018-05-25T11:25:06.824Z,7948
2018-05-25T11:26:06.317Z,6988
2018-05-25T11:27:06.320Z,6316
2018-05-25T11:28:06.808Z,5820
2018-05-25T11:29:06.538Z,5544
2018-05-25T11:30:06.542Z,5460
2018-05-25T11:31:06.272Z,5596
2018-05-25T11:32:06.793Z,5900
2018-05-25T11:33:06.578Z,6392
2018-05-25T11:34:06.519Z,7060
2018-05-25T11:35:06.797Z,7740
2018-05-25T11:36:06.523Z,8004
2018-05-25T11:37:06.828Z,8600
2018-05-25T11:38:06.522Z,9412
2018-05-25T11:39:06.516Z,9732
2018-05-25T11:40:06.505Z,9880
2018-05-25T11:41:06.249Z,9924
2018-05-25T11:42:06.522Z,9820
2018-05-25T11:43:05.950Z,9532
2018-05-25T11:44:06.757Z,9352
2018-05-25T11:45:06.486Z,9268
2018-05-25T11:46:06.483Z,9216
2018-05-25T11:47:06.735Z,9184
2018-05-25T11:48:06.725Z,9332
2018-05-25T11:49:06.466Z,9476
2018-05-25T11:50:06.485Z,9400
2018-05-25T11:51:06.191Z,9460
2018-05-25T11:52:06.197Z,9660
2018-05-25T11:53:06.580Z,9852
2018-05-25T11:54:06.177Z,9912
2018-05-25T11:55:05.905Z,9936
2018-05-25T11:56:06.450Z,9908
2018-05-25T11:57:06.425Z,9920
2018-05-25T11:58:06.688Z,10000
2018-05-25T11:59:06.146Z,10020
2018-05-25T12:00:06.143Z,10084
2018-05-25T12:01:06.668Z,10100
2018-05-25T12:02:05.874Z,10216
2018-05-25T12:03:06.401Z,10416
2018-05-25T12:04:06.681Z,10532
2018-05-25T12:05:06.668Z,10460
2018-05-25T12:06:06.119Z,10092
2018-05-25T12:07:06.647Z,9824
2018-05-25T12:08:06.382Z,9636
2018-05-25T12:09:06.636Z,9652
2018-05-25T12:10:06.099Z,9808
2018-05-25T12:11:06.096Z,10012
2018-05-25T12:12:06.364Z,10224
2018-05-25T12:13:06.345Z,10308
2018-05-25T12:14:06.085Z,10332
2018-05-25T12:15:06.353Z,10240
2018-05-25T12:16:06.350Z,10116
2018-05-25T12:17:06.339Z,9896
2018-05-25T12:18:06.065Z,9632
2018-05-25T12:19:06.122Z,9580
2018-05-25T12:20:06.069Z,9372
2018-05-25T12:21:06.601Z,9204
2018-05-25T12:22:06.591Z,9104
2018-05-25T12:23:06.310Z,9028
2018-05-25T12:24:06.312Z,8960
2018-05-25T12:25:06.033Z,8984
2018-05-25T12:26:06.033Z,9112
2018-05-25T12:27:06.305Z,9280
2018-05-25T12:28:05.776Z,9524
2018-05-25T12:29:06.013Z,9844
2018-05-25T12:30:06.285Z,10220
2018-05-25T12:31:06.287Z,10644
2018-05-25T12:32:06.533Z,11120
2018-05-25T12:33:06.536Z,11568
2018-05-25T12:34:06.533Z,11904
2018-05-25T12:35:06.532Z,12164
2018-05-25T12:36:06.261Z,12356
2018-05-25T12:37:05.983Z,12528
2018-05-25T12:38:05.976Z,12684
2018-05-25T12:39:06.241Z,12784
2018-05-25T12:40:06.257Z,12804
2018-05-25T12:41:05.978Z,12800
2018-05-25T12:42:06.225Z,12848
2018-05-25T12:43:05.685Z,12952
2018-05-25T12:44:06.218Z,13152
2018-05-25T12:45:06.484Z,13516
2018-05-25T12:46:05.951Z,14120
2018-05-25T12:47:05.942Z,14796
2018-05-25T12:48:06.185Z,15560
2018-05-25T12:49:05.924Z,16576
2018-05-25T12:50:06.470Z,17824
2018-05-25T12:51:05.926Z,19936
2018-05-25T12:52:06.455Z,20736
2018-05-25T12:53:05.908Z,18560
2018-05-25T12:54:05.912Z,18688
2018-05-25T12:55:05.904Z,17664
2018-05-25T12:56:06.431Z,17536
2018-05-25T12:57:06.428Z,17152
2018-05-25T12:58:05.879Z,16704
2018-05-25T12:59:06.144Z,16416
2018-05-25T13:00:06.139Z,16160
2018-05-25T13:01:05.893Z,16128
2018-05-25T13:02:06.145Z,16800
2018-05-25T13:03:06.400Z,19744
2018-05-25T13:04:06.393Z,20640
2018-05-25T13:05:06.132Z,17792
2018-05-25T13:06:05.861Z,16416
2018-05-25T13:07:06.383Z,15268
2018-05-25T13:08:06.112Z,14592
2018-05-25T13:09:05.849Z,14216
2018-05-25T13:10:05.847Z,13992
2018-05-25T13:11:06.102Z,14304
2018-05-25T13:12:06.358Z,14716
2018-05-25T13:13:05.841Z,15780
2018-05-25T13:14:06.096Z,16992
2018-05-25T13:15:05.837Z,17216
2018-05-25T13:16:06.409Z,17792
2018-05-25T13:17:06.076Z,18144
2018-05-25T13:18:06.073Z,19232
2018-05-25T13:19:05.802Z,22208
2018-05-25T13:20:06.070Z,19872
2018-05-25T13:21:05.799Z,18720
2018-05-25T13:22:06.077Z,17664
2018-05-25T13:23:05.529Z,17120
2018-05-25T13:24:05.994Z,17088
2018-05-25T13:25:06.059Z,17600
2018-05-25T13:26:06.315Z,18144
2018-05-25T13:27:05.788Z,18528
2018-05-25T13:28:06.342Z,18912
2018-05-25T13:29:06.050Z,21600
2018-05-25T13:30:06.317Z,18016
2018-05-25T13:31:05.518Z,15892